sensor_id;sensor_type;location;lat;lon;timestamp;P1;durP1;ratioP1;P2;durP2;ratioP2
34136;SDS011;20414;50.860;4.382;2022-11-20T00:01:07;8.05;;;6.25;;
34136;SDS011;20414;50.860;4.382;2022-11-20T00:03:34;6.70;;;5.85;;
34136;SDS011;20414;50.860;4.382;2022-11-20T00:06:08;6.30;;;5.70;;
34136;SDS011;20414;50.860;4.382;2022-11-20T00:08:38;7.10;;;5.93;;
34136;SDS011;20414;50.860;4.382;2022-11-20T00:13:38;7.85;;;6.15;;
34136;SDS011;20414;50.860;4.382;2022-11-20T00:16:05;9.10;;;6.15;;
34136;SDS011;20414;50.860;4.382;2022-11-20T00:18:32;8.30;;;6.32;;
34136;SDS011;20414;50.860;4.382;2022-11-20T00:21:05;9.60;;;6.68;;
34136;SDS011;20414;50.860;4.382;2022-11-20T00:23:35;8.15;;;5.78;;
34136;SDS011;20414;50.860;4.382;2022-11-20T00:26:05;8.32;;;6.53;;
34136;SDS011;20414;50.860;4.382;2022-11-20T00:28:32;7.93;;;6.20;;
34136;SDS011;20414;50.860;4.382;2022-11-20T00:31:05;6.43;;;5.63;;
34136;SDS011;20414;50.860;4.382;2022-11-20T00:33:37;8.75;;;5.47;;
34136;SDS011;20414;50.860;4.382;2022-11-20T00:36:04;6.80;;;5.70;;
34136;SDS011;20414;50.860;4.382;2022-11-20T00:38:32;8.52;;;6.28;;
34136;SDS011;20414;50.860;4.382;2022-11-20T00:40:58;6.53;;;5.68;;
34136;SDS011;20414;50.860;4.382;2022-11-20T00:43:25;8.02;;;6.05;;
34136;SDS011;20414;50.860;4.382;2022-11-20T00:46:11;8.10;;;6.05;;
34136;SDS011;20414;50.860;4.382;2022-11-20T00:48:38;7.15;;;5.80;;
34136;SDS011;20414;50.860;4.382;2022-11-20T00:51:04;9.73;;;6.35;;
34136;SDS011;20414;50.860;4.382;2022-11-20T00:53:31;7.93;;;5.68;;
34136;SDS011;20414;50.860;4.382;2022-11-20T00:55:57;7.47;;;5.70;;
34136;SDS011;20414;50.860;4.382;2022-11-20T00:58:25;7.28;;;5.35;;
34136;SDS011;20414;50.860;4.382;2022-11-20T01:00:59;8.75;;;6.30;;
34136;SDS011;20414;50.860;4.382;2022-11-20T01:03:31;6.93;;;5.63;;
34136;SDS011;20414;50.860;4.382;2022-11-20T01:06:01;7.55;;;5.65;;
34136;SDS011;20414;50.860;4.382;2022-11-20T01:08:31;7.55;;;5.75;;
34136;SDS011;20414;50.860;4.382;2022-11-20T01:11:06;6.80;;;5.55;;
34136;SDS011;20414;50.860;4.382;2022-11-20T01:13:34;6.95;;;5.75;;
34136;SDS011;20414;50.860;4.382;2022-11-20T01:18:30;7.43;;;6.15;;
34136;SDS011;20414;50.860;4.382;2022-11-20T01:20:59;6.53;;;5.57;;
34136;SDS011;20414;50.860;4.382;2022-11-20T01:23:29;6.18;;;5.50;;
34136;SDS011;20414;50.860;4.382;2022-11-20T01:26:00;6.82;;;5.65;;
34136;SDS011;20414;50.860;4.382;2022-11-20T01:28:28;5.90;;;5.18;;
34136;SDS011;20414;50.860;4.382;2022-11-20T01:30:54;6.25;;;5.38;;
34136;SDS011;20414;50.860;4.382;2022-11-20T01:33:19;7.03;;;5.90;;
34136;SDS011;20414;50.860;4.382;2022-11-20T01:35:45;7.03;;;5.80;;
34136;SDS011;20414;50.860;4.382;2022-11-20T01:38:11;6.82;;;5.47;;
34136;SDS011;20414;50.860;4.382;2022-11-20T01:40:36;6.28;;;5.68;;
34136;SDS011;20414;50.860;4.382;2022-11-20T01:43:17;7.80;;;5.80;;
34136;SDS011;20414;50.860;4.382;2022-11-20T01:48:22;6.57;;;5.50;;
34136;SDS011;20414;50.860;4.382;2022-11-20T01:50:51;5.85;;;5.25;;
34136;SDS011;20414;50.860;4.382;2022-11-20T01:53:18;6.93;;;5.60;;
34136;SDS011;20414;50.860;4.382;2022-11-20T01:55:49;7.07;;;5.57;;
34136;SDS011;20414;50.860;4.382;2022-11-20T01:58:18;5.90;;;5.07;;
34136;SDS011;20414;50.860;4.382;2022-11-20T02:00:50;6.47;;;5.35;;
34136;SDS011;20414;50.860;4.382;2022-11-20T02:03:16;7.80;;;5.65;;
34136;SDS011;20414;50.860;4.382;2022-11-20T02:05:47;7.07;;;5.50;;
34136;SDS011;20414;50.860;4.382;2022-11-20T02:08:19;7.38;;;5.40;;
34136;SDS011;20414;50.860;4.382;2022-11-20T02:10:46;5.70;;;5.10;;
34136;SDS011;20414;50.860;4.382;2022-11-20T02:13:11;6.65;;;5.50;;
34136;SDS011;20414;50.860;4.382;2022-11-20T02:15:56;5.82;;;5.07;;
34136;SDS011;20414;50.860;4.382;2022-11-20T02:18:21;6.88;;;5.22;;
34136;SDS011;20414;50.860;4.382;2022-11-20T02:20:50;5.30;;;4.75;;
34136;SDS011;20414;50.860;4.382;2022-11-20T02:25:49;6.80;;;5.15;;
34136;SDS011;20414;50.860;4.382;2022-11-20T02:28:16;6.20;;;5.07;;
34136;SDS011;20414;50.860;4.382;2022-11-20T02:30:42;6.70;;;5.20;;
34136;SDS011;20414;50.860;4.382;2022-11-20T02:33:08;6.57;;;5.05;;
34136;SDS011;20414;50.860;4.382;2022-11-20T02:38:01;6.00;;;4.72;;
34136;SDS011;20414;50.860;4.382;2022-11-20T02:40:28;5.55;;;4.78;;
34136;SDS011;20414;50.860;4.382;2022-11-20T02:42:54;6.05;;;4.88;;
34136;SDS011;20414;50.860;4.382;2022-11-20T02:45:20;6.72;;;5.07;;
34136;SDS011;20414;50.860;4.382;2022-11-20T02:47:47;5.55;;;4.80;;
34136;SDS011;20414;50.860;4.382;2022-11-20T02:50:13;6.88;;;5.05;;
34136;SDS011;20414;50.860;4.382;2022-11-20T02:52:39;5.80;;;4.40;;
34136;SDS011;20414;50.860;4.382;2022-11-20T02:55:05;5.50;;;4.80;;
34136;SDS011;20414;50.860;4.382;2022-11-20T02:57:31;6.32;;;5.05;;
34136;SDS011;20414;50.860;4.382;2022-11-20T02:59:57;5.82;;;4.88;;
34136;SDS011;20414;50.860;4.382;2022-11-20T03:02:22;5.55;;;4.97;;
34136;SDS011;20414;50.860;4.382;2022-11-20T03:04:48;5.70;;;4.60;;
34136;SDS011;20414;50.860;4.382;2022-11-20T03:07:13;5.85;;;4.68;;
34136;SDS011;20414;50.860;4.382;2022-11-20T03:09:39;6.65;;;4.82;;
34136;SDS011;20414;50.860;4.382;2022-11-20T03:12:05;6.25;;;4.90;;
34136;SDS011;20414;50.860;4.382;2022-11-20T03:14:32;6.20;;;5.18;;
34136;SDS011;20414;50.860;4.382;2022-11-20T03:16:57;6.22;;;4.78;;
34136;SDS011;20414;50.860;4.382;2022-11-20T03:19:23;5.28;;;4.63;;
34136;SDS011;20414;50.860;4.382;2022-11-20T03:21:49;5.90;;;4.75;;
34136;SDS011;20414;50.860;4.382;2022-11-20T03:24:14;6.45;;;4.57;;
34136;SDS011;20414;50.860;4.382;2022-11-20T03:26:40;6.00;;;5.00;;
34136;SDS011;20414;50.860;4.382;2022-11-20T03:29:06;5.20;;;4.70;;
34136;SDS011;20414;50.860;4.382;2022-11-20T03:31:33;4.78;;;4.30;;
34136;SDS011;20414;50.860;4.382;2022-11-20T03:34:05;5.95;;;4.90;;
34136;SDS011;20414;50.860;4.382;2022-11-20T03:36:32;5.40;;;4.78;;
34136;SDS011;20414;50.860;4.382;2022-11-20T03:38:58;5.80;;;4.85;;
34136;SDS011;20414;50.860;4.382;2022-11-20T03:41:25;5.40;;;4.68;;
34136;SDS011;20414;50.860;4.382;2022-11-20T03:43:57;5.85;;;4.65;;
34136;SDS011;20414;50.860;4.382;2022-11-20T03:46:25;5.63;;;4.70;;
34136;SDS011;20414;50.860;4.382;2022-11-20T03:48:51;5.72;;;4.90;;
34136;SDS011;20414;50.860;4.382;2022-11-20T03:51:21;5.57;;;4.30;;
34136;SDS011;20414;50.860;4.382;2022-11-20T03:53:49;5.20;;;4.65;;
34136;SDS011;20414;50.860;4.382;2022-11-20T03:56:17;5.70;;;4.53;;
34136;SDS011;20414;50.860;4.382;2022-11-20T03:58:44;4.63;;;4.18;;
34136;SDS011;20414;50.860;4.382;2022-11-20T04:01:10;4.97;;;4.13;;
34136;SDS011;20414;50.860;4.382;2022-11-20T04:03:41;6.97;;;4.45;;
34136;SDS011;20414;50.860;4.382;2022-11-20T04:06:13;4.82;;;4.18;;
34136;SDS011;20414;50.860;4.382;2022-11-20T04:08:43;4.47;;;3.92;;
34136;SDS011;20414;50.860;4.382;2022-11-20T04:11:26;5.40;;;4.68;;
34136;SDS011;20414;50.860;4.382;2022-11-20T04:13:57;5.15;;;4.28;;
34136;SDS011;20414;50.860;4.382;2022-11-20T04:16:24;6.05;;;4.05;;
34136;SDS011;20414;50.860;4.382;2022-11-20T04:18:54;5.63;;;4.53;;
34136;SDS011;20414;50.860;4.382;2022-11-20T04:21:21;5.63;;;4.13;;
34136;SDS011;20414;50.860;4.382;2022-11-20T04:23:48;5.13;;;4.40;;
34136;SDS011;20414;50.860;4.382;2022-11-20T04:26:14;5.55;;;4.28;;
34136;SDS011;20414;50.860;4.382;2022-11-20T04:28:40;4.97;;;4.28;;
34136;SDS011;20414;50.860;4.382;2022-11-20T04:31:12;5.30;;;4.25;;
34136;SDS011;20414;50.860;4.382;2022-11-20T04:33:40;5.45;;;4.25;;
34136;SDS011;20414;50.860;4.382;2022-11-20T04:36:06;4.32;;;3.92;;
34136;SDS011;20414;50.860;4.382;2022-11-20T04:38:36;4.72;;;4.22;;
34136;SDS011;20414;50.860;4.382;2022-11-20T04:41:04;5.07;;;4.07;;
34136;SDS011;20414;50.860;4.382;2022-11-20T04:43:31;4.80;;;3.90;;
34136;SDS011;20414;50.860;4.382;2022-11-20T04:45:57;4.95;;;4.13;;
34136;SDS011;20414;50.860;4.382;2022-11-20T04:48:24;4.95;;;4.15;;
34136;SDS011;20414;50.860;4.382;2022-11-20T04:50:51;4.88;;;4.32;;
34136;SDS011;20414;50.860;4.382;2022-11-20T04:53:17;5.20;;;4.32;;
34136;SDS011;20414;50.860;4.382;2022-11-20T04:55:43;5.15;;;4.32;;
34136;SDS011;20414;50.860;4.382;2022-11-20T04:58:09;5.75;;;4.43;;
34136;SDS011;20414;50.860;4.382;2022-11-20T05:00:34;5.32;;;4.35;;
34136;SDS011;20414;50.860;4.382;2022-11-20T05:03:00;4.45;;;4.05;;
34136;SDS011;20414;50.860;4.382;2022-11-20T05:05:26;5.05;;;4.45;;
34136;SDS011;20414;50.860;4.382;2022-11-20T05:07:51;4.47;;;4.05;;
34136;SDS011;20414;50.860;4.382;2022-11-20T05:10:17;4.18;;;3.78;;
34136;SDS011;20414;50.860;4.382;2022-11-20T05:12:43;4.90;;;4.00;;
34136;SDS011;20414;50.860;4.382;2022-11-20T05:15:08;5.78;;;3.95;;
34136;SDS011;20414;50.860;4.382;2022-11-20T05:17:34;4.20;;;3.80;;
34136;SDS011;20414;50.860;4.382;2022-11-20T05:20:00;5.20;;;4.32;;
34136;SDS011;20414;50.860;4.382;2022-11-20T05:22:26;5.25;;;4.28;;
34136;SDS011;20414;50.860;4.382;2022-11-20T05:24:51;4.82;;;4.32;;
34136;SDS011;20414;50.860;4.382;2022-11-20T05:27:17;4.55;;;3.97;;
34136;SDS011;20414;50.860;4.382;2022-11-20T05:29:42;5.30;;;4.25;;
34136;SDS011;20414;50.860;4.382;2022-11-20T05:32:08;5.20;;;3.90;;
34136;SDS011;20414;50.860;4.382;2022-11-20T05:34:34;4.45;;;3.80;;
34136;SDS011;20414;50.860;4.382;2022-11-20T05:37:01;5.15;;;3.80;;
34136;SDS011;20414;50.860;4.382;2022-11-20T05:39:27;4.20;;;3.80;;
34136;SDS011;20414;50.860;4.382;2022-11-20T05:41:52;4.45;;;3.85;;
34136;SDS011;20414;50.860;4.382;2022-11-20T05:44:38;4.60;;;3.80;;
34136;SDS011;20414;50.860;4.382;2022-11-20T05:47:04;5.80;;;3.95;;
34136;SDS011;20414;50.860;4.382;2022-11-20T05:49:30;5.90;;;4.07;;
34136;SDS011;20414;50.860;4.382;2022-11-20T05:51:56;4.32;;;3.60;;
34136;SDS011;20414;50.860;4.382;2022-11-20T05:54:22;5.10;;;4.32;;
34136;SDS011;20414;50.860;4.382;2022-11-20T05:56:47;4.00;;;3.60;;
34136;SDS011;20414;50.860;4.382;2022-11-20T05:59:13;4.50;;;4.07;;
34136;SDS011;20414;50.860;4.382;2022-11-20T06:01:38;4.55;;;3.83;;
34136;SDS011;20414;50.860;4.382;2022-11-20T06:04:04;4.00;;;3.60;;
34136;SDS011;20414;50.860;4.382;2022-11-20T06:06:30;4.70;;;3.78;;
34136;SDS011;20414;50.860;4.382;2022-11-20T06:08:55;4.38;;;3.42;;
34136;SDS011;20414;50.860;4.382;2022-11-20T06:11:23;4.65;;;3.78;;
34136;SDS011;20414;50.860;4.382;2022-11-20T06:13:49;4.68;;;4.18;;
34136;SDS011;20414;50.860;4.382;2022-11-20T06:16:15;4.80;;;3.92;;
34136;SDS011;20414;50.860;4.382;2022-11-20T06:18:42;4.78;;;4.00;;
34136;SDS011;20414;50.860;4.382;2022-11-20T06:21:10;4.32;;;3.83;;
34136;SDS011;20414;50.860;4.382;2022-11-20T06:23:42;5.43;;;3.95;;
34136;SDS011;20414;50.860;4.382;2022-11-20T06:26:12;4.47;;;3.92;;
34136;SDS011;20414;50.860;4.382;2022-11-20T06:28:40;4.70;;;4.13;;
34136;SDS011;20414;50.860;4.382;2022-11-20T06:31:06;6.10;;;3.83;;
34136;SDS011;20414;50.860;4.382;2022-11-20T06:33:32;4.03;;;3.35;;
34136;SDS011;20414;50.860;4.382;2022-11-20T06:35:59;4.10;;;3.70;;
34136;SDS011;20414;50.860;4.382;2022-11-20T06:38:26;5.68;;;3.80;;
34136;SDS011;20414;50.860;4.382;2022-11-20T06:40:52;4.13;;;3.60;;
34136;SDS011;20414;50.860;4.382;2022-11-20T06:43:18;4.85;;;3.92;;
34136;SDS011;20414;50.860;4.382;2022-11-20T06:45:44;4.05;;;3.53;;
34136;SDS011;20414;50.860;4.382;2022-11-20T06:48:10;4.78;;;3.80;;
34136;SDS011;20414;50.860;4.382;2022-11-20T06:50:38;4.47;;;3.97;;
34136;SDS011;20414;50.860;4.382;2022-11-20T06:53:04;4.35;;;3.80;;
34136;SDS011;20414;50.860;4.382;2022-11-20T06:55:30;3.92;;;3.53;;
34136;SDS011;20414;50.860;4.382;2022-11-20T06:57:56;5.32;;;4.13;;
34136;SDS011;20414;50.860;4.382;2022-11-20T07:00:22;4.75;;;3.83;;
34136;SDS011;20414;50.860;4.382;2022-11-20T07:02:48;4.40;;;3.92;;
34136;SDS011;20414;50.860;4.382;2022-11-20T07:05:15;4.22;;;3.75;;
34136;SDS011;20414;50.860;4.382;2022-11-20T07:07:41;4.72;;;3.78;;
34136;SDS011;20414;50.860;4.382;2022-11-20T07:10:07;4.32;;;3.45;;
34136;SDS011;20414;50.860;4.382;2022-11-20T07:12:33;6.90;;;3.97;;
34136;SDS011;20414;50.860;4.382;2022-11-20T07:14:59;4.85;;;4.05;;
34136;SDS011;20414;50.860;4.382;2022-11-20T07:17:24;4.28;;;3.88;;
34136;SDS011;20414;50.860;4.382;2022-11-20T07:19:50;4.40;;;4.00;;
34136;SDS011;20414;50.860;4.382;2022-11-20T07:22:16;4.95;;;3.85;;
34136;SDS011;20414;50.860;4.382;2022-11-20T07:24:41;4.93;;;3.70;;
34136;SDS011;20414;50.860;4.382;2022-11-20T07:27:07;4.55;;;3.60;;
34136;SDS011;20414;50.860;4.382;2022-11-20T07:29:33;5.47;;;3.80;;
34136;SDS011;20414;50.860;4.382;2022-11-20T07:31:58;4.70;;;3.83;;
34136;SDS011;20414;50.860;4.382;2022-11-20T07:34:24;4.93;;;3.65;;
34136;SDS011;20414;50.860;4.382;2022-11-20T07:36:50;5.57;;;4.25;;
34136;SDS011;20414;50.860;4.382;2022-11-20T07:39:15;4.60;;;3.85;;
34136;SDS011;20414;50.860;4.382;2022-11-20T07:41:41;5.00;;;3.80;;
34136;SDS011;20414;50.860;4.382;2022-11-20T07:44:06;4.65;;;4.00;;
34136;SDS011;20414;50.860;4.382;2022-11-20T07:46:32;4.68;;;3.80;;
34136;SDS011;20414;50.860;4.382;2022-11-20T07:48:58;3.95;;;3.47;;
34136;SDS011;20414;50.860;4.382;2022-11-20T07:51:23;4.90;;;4.07;;
34136;SDS011;20414;50.860;4.382;2022-11-20T07:53:51;4.78;;;3.60;;
34136;SDS011;20414;50.860;4.382;2022-11-20T07:56:17;4.95;;;4.10;;
34136;SDS011;20414;50.860;4.382;2022-11-20T07:58:43;5.05;;;4.00;;
34136;SDS011;20414;50.860;4.382;2022-11-20T08:01:08;4.85;;;3.97;;
34136;SDS011;20414;50.860;4.382;2022-11-20T08:03:34;4.90;;;3.75;;
34136;SDS011;20414;50.860;4.382;2022-11-20T08:06:02;5.45;;;3.97;;
34136;SDS011;20414;50.860;4.382;2022-11-20T08:08:29;5.28;;;4.20;;
34136;SDS011;20414;50.860;4.382;2022-11-20T08:10:56;4.82;;;3.60;;
34136;SDS011;20414;50.860;4.382;2022-11-20T08:13:42;4.55;;;3.70;;
34136;SDS011;20414;50.860;4.382;2022-11-20T08:16:27;4.40;;;3.80;;
34136;SDS011;20414;50.860;4.382;2022-11-20T08:18:53;5.00;;;3.95;;
34136;SDS011;20414;50.860;4.382;2022-11-20T08:21:18;4.65;;;3.65;;
34136;SDS011;20414;50.860;4.382;2022-11-20T08:23:44;5.32;;;3.85;;
34136;SDS011;20414;50.860;4.382;2022-11-20T08:26:10;6.97;;;3.75;;
34136;SDS011;20414;50.860;4.382;2022-11-20T08:28:35;5.07;;;3.90;;
34136;SDS011;20414;50.860;4.382;2022-11-20T08:31:02;4.72;;;3.63;;
34136;SDS011;20414;50.860;4.382;2022-11-20T08:33:28;4.38;;;3.45;;
34136;SDS011;20414;50.860;4.382;2022-11-20T08:36:04;5.18;;;4.07;;
34136;SDS011;20414;50.860;4.382;2022-11-20T08:38:31;4.72;;;3.63;;
34136;SDS011;20414;50.860;4.382;2022-11-20T08:40:58;4.53;;;3.80;;
34136;SDS011;20414;50.860;4.382;2022-11-20T08:43:43;5.28;;;3.70;;
34136;SDS011;20414;50.860;4.382;2022-11-20T08:46:09;4.57;;;3.40;;
34136;SDS011;20414;50.860;4.382;2022-11-20T08:48:34;3.85;;;3.40;;
34136;SDS011;20414;50.860;4.382;2022-11-20T08:51:00;4.85;;;3.70;;
34136;SDS011;20414;50.860;4.382;2022-11-20T08:53:26;5.45;;;4.10;;
34136;SDS011;20414;50.860;4.382;2022-11-20T08:55:52;4.43;;;3.38;;
34136;SDS011;20414;50.860;4.382;2022-11-20T08:58:18;5.18;;;3.90;;
34136;SDS011;20414;50.860;4.382;2022-11-20T09:00:43;4.82;;;3.80;;
34136;SDS011;20414;50.860;4.382;2022-11-20T09:03:09;4.45;;;3.65;;
34136;SDS011;20414;50.860;4.382;2022-11-20T09:05:35;5.00;;;3.83;;
34136;SDS011;20414;50.860;4.382;2022-11-20T09:08:00;4.85;;;3.50;;
34136;SDS011;20414;50.860;4.382;2022-11-20T09:10:27;7.65;;;3.60;;
34136;SDS011;20414;50.860;4.382;2022-11-20T09:12:52;5.22;;;3.50;;
34136;SDS011;20414;50.860;4.382;2022-11-20T09:15:19;4.60;;;3.45;;
34136;SDS011;20414;50.860;4.382;2022-11-20T09:20:21;5.45;;;3.97;;
34136;SDS011;20414;50.860;4.382;2022-11-20T09:22:47;5.13;;;3.90;;
34136;SDS011;20414;50.860;4.382;2022-11-20T09:25:13;4.30;;;3.88;;
34136;SDS011;20414;50.860;4.382;2022-11-20T09:27:39;4.07;;;3.60;;
34136;SDS011;20414;50.860;4.382;2022-11-20T09:30:06;4.10;;;3.45;;
34136;SDS011;20414;50.860;4.382;2022-11-20T09:32:32;4.75;;;3.58;;
34136;SDS011;20414;50.860;4.382;2022-11-20T09:34:58;5.13;;;3.60;;
34136;SDS011;20414;50.860;4.382;2022-11-20T09:37:24;4.88;;;3.47;;
34136;SDS011;20414;50.860;4.382;2022-11-20T09:39:49;5.10;;;3.95;;
34136;SDS011;20414;50.860;4.382;2022-11-20T09:42:31;5.43;;;3.63;;
34136;SDS011;20414;50.860;4.382;2022-11-20T09:50:36;5.40;;;3.50;;
34136;SDS011;20414;50.860;4.382;2022-11-20T09:55:47;6.60;;;3.70;;
34136;SDS011;20414;50.860;4.382;2022-11-20T10:01:07;7.18;;;3.65;;
34136;SDS011;20414;50.860;4.382;2022-11-20T10:03:50;4.45;;;3.58;;
34136;SDS011;20414;50.860;4.382;2022-11-20T10:06:28;5.40;;;3.83;;
34136;SDS011;20414;50.860;4.382;2022-11-20T10:14:34;4.88;;;3.50;;
34136;SDS011;20414;50.860;4.382;2022-11-20T10:17:03;6.63;;;3.70;;
34136;SDS011;20414;50.860;4.382;2022-11-20T10:25:24;4.63;;;3.35;;
34136;SDS011;20414;50.860;4.382;2022-11-20T10:28:15;5.68;;;3.42;;
34136;SDS011;20414;50.860;4.382;2022-11-20T10:31:08;4.57;;;3.38;;
34136;SDS011;20414;50.860;4.382;2022-11-20T10:33:39;4.57;;;3.33;;
34136;SDS011;20414;50.860;4.382;2022-11-20T10:38:46;4.57;;;3.17;;
34136;SDS011;20414;50.860;4.382;2022-11-20T10:41:21;4.10;;;3.38;;
34136;SDS011;20414;50.860;4.382;2022-11-20T10:44:10;3.40;;;2.90;;
34136;SDS011;20414;50.860;4.382;2022-11-20T10:47:00;5.43;;;3.70;;
34136;SDS011;20414;50.860;4.382;2022-11-20T10:49:26;5.00;;;3.50;;
34136;SDS011;20414;50.860;4.382;2022-11-20T11:00:18;3.78;;;3.22;;
34136;SDS011;20414;50.860;4.382;2022-11-20T11:02:53;5.38;;;3.17;;
34136;SDS011;20414;50.860;4.382;2022-11-20T11:07:46;4.70;;;3.38;;
34136;SDS011;20414;50.860;4.382;2022-11-20T11:10:18;3.88;;;3.00;;
34136;SDS011;20414;50.860;4.382;2022-11-20T11:12:48;3.67;;;2.75;;
34136;SDS011;20414;50.860;4.382;2022-11-20T11:15:24;4.82;;;3.03;;
34136;SDS011;20414;50.860;4.382;2022-11-20T11:17:55;3.42;;;2.92;;
34136;SDS011;20414;50.860;4.382;2022-11-20T11:20:24;4.53;;;2.90;;
34136;SDS011;20414;50.860;4.382;2022-11-20T11:25:22;4.45;;;3.28;;
34136;SDS011;20414;50.860;4.382;2022-11-20T11:30:29;3.90;;;2.58;;
34136;SDS011;20414;50.860;4.382;2022-11-20T11:33:09;4.18;;;2.40;;
34136;SDS011;20414;50.860;4.382;2022-11-20T11:35:39;3.00;;;2.53;;
34136;SDS011;20414;50.860;4.382;2022-11-20T11:38:14;4.07;;;2.60;;
34136;SDS011;20414;50.860;4.382;2022-11-20T11:40:44;3.67;;;2.63;;
34136;SDS011;20414;50.860;4.382;2022-11-20T11:43:25;3.60;;;2.42;;
34136;SDS011;20414;50.860;4.382;2022-11-20T11:51:35;2.42;;;2.22;;
34136;SDS011;20414;50.860;4.382;2022-11-20T11:54:30;3.08;;;2.00;;
34136;SDS011;20414;50.860;4.382;2022-11-20T11:57:03;2.88;;;2.10;;
34136;SDS011;20414;50.860;4.382;2022-11-20T11:59:41;3.20;;;2.38;;
34136;SDS011;20414;50.860;4.382;2022-11-20T12:02:44;3.00;;;2.08;;
34136;SDS011;20414;50.860;4.382;2022-11-20T12:05:47;3.83;;;2.00;;
34136;SDS011;20414;50.860;4.382;2022-11-20T12:14:38;2.33;;;2.13;;
34136;SDS011;20414;50.860;4.382;2022-11-20T12:17:08;3.58;;;2.20;;
34136;SDS011;20414;50.860;4.382;2022-11-20T12:19:36;2.72;;;2.08;;
34136;SDS011;20414;50.860;4.382;2022-11-20T12:25:07;3.78;;;1.85;;
34136;SDS011;20414;50.860;4.382;2022-11-20T12:30:27;3.78;;;2.35;;
34136;SDS011;20414;50.860;4.382;2022-11-20T12:40:53;2.60;;;2.10;;
34136;SDS011;20414;50.860;4.382;2022-11-20T12:43:21;3.63;;;2.20;;
34136;SDS011;20414;50.860;4.382;2022-11-20T12:46:14;2.95;;;1.83;;
34136;SDS011;20414;50.860;4.382;2022-11-20T13:05:19;5.05;;;2.00;;
34136;SDS011;20414;50.860;4.382;2022-11-20T13:08:02;3.30;;;1.63;;
34136;SDS011;20414;50.860;4.382;2022-11-20T13:16:41;2.97;;;1.38;;
34136;SDS011;20414;50.860;4.382;2022-11-20T13:19:15;2.67;;;1.60;;
34136;SDS011;20414;50.860;4.382;2022-11-20T13:21:43;2.33;;;1.50;;
34136;SDS011;20414;50.860;4.382;2022-11-20T13:29:28;1.92;;;1.50;;
34136;SDS011;20414;50.860;4.382;2022-11-20T13:32:04;2.55;;;1.70;;
34136;SDS011;20414;50.860;4.382;2022-11-20T13:34:50;3.10;;;1.77;;
34136;SDS011;20414;50.860;4.382;2022-11-20T13:40:21;3.08;;;1.50;;
34136;SDS011;20414;50.860;4.382;2022-11-20T13:45:26;2.70;;;1.50;;
34136;SDS011;20414;50.860;4.382;2022-11-20T13:47:54;3.63;;;1.90;;
34136;SDS011;20414;50.860;4.382;2022-11-20T13:51:03;4.13;;;1.48;;
34136;SDS011;20414;50.860;4.382;2022-11-20T14:01:50;2.78;;;1.70;;
34136;SDS011;20414;50.860;4.382;2022-11-20T14:04:19;2.40;;;1.50;;
34136;SDS011;20414;50.860;4.382;2022-11-20T14:06:52;2.88;;;1.60;;
34136;SDS011;20414;50.860;4.382;2022-11-20T14:09:31;2.72;;;1.42;;
34136;SDS011;20414;50.860;4.382;2022-11-20T14:11:57;3.97;;;1.60;;
34136;SDS011;20414;50.860;4.382;2022-11-20T14:14:24;2.45;;;1.33;;
34136;SDS011;20414;50.860;4.382;2022-11-20T14:16:52;1.83;;;1.48;;
34136;SDS011;20414;50.860;4.382;2022-11-20T14:19:29;3.15;;;1.42;;
34136;SDS011;20414;50.860;4.382;2022-11-20T14:24:46;1.70;;;1.35;;
34136;SDS011;20414;50.860;4.382;2022-11-20T14:27:18;2.47;;;1.65;;
34136;SDS011;20414;50.860;4.382;2022-11-20T14:29:46;2.85;;;1.75;;
34136;SDS011;20414;50.860;4.382;2022-11-20T14:32:15;4.35;;;1.50;;
34136;SDS011;20414;50.860;4.382;2022-11-20T14:34:46;2.33;;;1.45;;
34136;SDS011;20414;50.860;4.382;2022-11-20T14:37:21;2.13;;;1.27;;
34136;SDS011;20414;50.860;4.382;2022-11-20T14:39:53;3.20;;;1.40;;
34136;SDS011;20414;50.860;4.382;2022-11-20T14:42:22;2.53;;;1.50;;
34136;SDS011;20414;50.860;4.382;2022-11-20T14:44:52;2.17;;;1.45;;
34136;SDS011;20414;50.860;4.382;2022-11-20T14:47:23;2.28;;;1.15;;
34136;SDS011;20414;50.860;4.382;2022-11-20T14:49:51;2.38;;;1.58;;
34136;SDS011;20414;50.860;4.382;2022-11-20T14:52:22;2.17;;;1.30;;
34136;SDS011;20414;50.860;4.382;2022-11-20T14:54:50;3.30;;;1.40;;
34136;SDS011;20414;50.860;4.382;2022-11-20T14:57:22;2.00;;;1.40;;
34136;SDS011;20414;50.860;4.382;2022-11-20T15:02:43;3.05;;;1.30;;
34136;SDS011;20414;50.860;4.382;2022-11-20T15:05:10;4.28;;;1.50;;
34136;SDS011;20414;50.860;4.382;2022-11-20T15:07:37;2.05;;;1.23;;
34136;SDS011;20414;50.860;4.382;2022-11-20T15:10:07;3.63;;;1.40;;
34136;SDS011;20414;50.860;4.382;2022-11-20T15:17:59;2.47;;;1.35;;
34136;SDS011;20414;50.860;4.382;2022-11-20T15:20:26;2.63;;;1.15;;
34136;SDS011;20414;50.860;4.382;2022-11-20T15:22:55;2.65;;;1.40;;
34136;SDS011;20414;50.860;4.382;2022-11-20T15:25:21;2.03;;;1.23;;
34136;SDS011;20414;50.860;4.382;2022-11-20T15:27:48;1.65;;;1.20;;
34136;SDS011;20414;50.860;4.382;2022-11-20T15:30:19;1.83;;;1.38;;
34136;SDS011;20414;50.860;4.382;2022-11-20T15:32:45;1.63;;;1.30;;
34136;SDS011;20414;50.860;4.382;2022-11-20T15:35:11;1.50;;;1.20;;
34136;SDS011;20414;50.860;4.382;2022-11-20T15:37:38;3.33;;;1.40;;
34136;SDS011;20414;50.860;4.382;2022-11-20T15:40:05;2.53;;;1.33;;
34136;SDS011;20414;50.860;4.382;2022-11-20T15:42:32;1.55;;;1.10;;
34136;SDS011;20414;50.860;4.382;2022-11-20T15:44:58;1.60;;;1.10;;
34136;SDS011;20414;50.860;4.382;2022-11-20T15:47:33;1.65;;;1.17;;
34136;SDS011;20414;50.860;4.382;2022-11-20T15:50:00;1.50;;;1.13;;
34136;SDS011;20414;50.860;4.382;2022-11-20T15:52:26;1.92;;;1.30;;
34136;SDS011;20414;50.860;4.382;2022-11-20T15:54:51;1.70;;;1.17;;
34136;SDS011;20414;50.860;4.382;2022-11-20T15:57:17;1.40;;;1.02;;
34136;SDS011;20414;50.860;4.382;2022-11-20T15:59:43;1.50;;;1.08;;
34136;SDS011;20414;50.860;4.382;2022-11-20T16:02:10;1.15;;;1.00;;
34136;SDS011;20414;50.860;4.382;2022-11-20T16:04:36;1.42;;;1.10;;
34136;SDS011;20414;50.860;4.382;2022-11-20T16:07:02;1.83;;;1.23;;
34136;SDS011;20414;50.860;4.382;2022-11-20T16:09:28;1.98;;;1.17;;
34136;SDS011;20414;50.860;4.382;2022-11-20T16:11:53;1.50;;;1.15;;
34136;SDS011;20414;50.860;4.382;2022-11-20T16:14:19;1.75;;;1.30;;
34136;SDS011;20414;50.860;4.382;2022-11-20T16:17:04;1.55;;;0.90;;
34136;SDS011;20414;50.860;4.382;2022-11-20T16:19:29;1.35;;;1.00;;
34136;SDS011;20414;50.860;4.382;2022-11-20T16:21:56;1.30;;;1.20;;
34136;SDS011;20414;50.860;4.382;2022-11-20T16:24:22;1.85;;;0.98;;
34136;SDS011;20414;50.860;4.382;2022-11-20T16:26:48;1.60;;;1.02;;
34136;SDS011;20414;50.860;4.382;2022-11-20T16:29:14;1.10;;;0.95;;
34136;SDS011;20414;50.860;4.382;2022-11-20T16:31:39;2.20;;;1.10;;
34136;SDS011;20414;50.860;4.382;2022-11-20T16:34:06;1.30;;;1.00;;
34136;SDS011;20414;50.860;4.382;2022-11-20T16:36:32;1.27;;;0.95;;
34136;SDS011;20414;50.860;4.382;2022-11-20T16:39:00;1.98;;;1.00;;
34136;SDS011;20414;50.860;4.382;2022-11-20T16:41:27;1.08;;;1.00;;
34136;SDS011;20414;50.860;4.382;2022-11-20T16:43:56;1.33;;;1.08;;
34136;SDS011;20414;50.860;4.382;2022-11-20T16:46:23;1.45;;;1.00;;
34136;SDS011;20414;50.860;4.382;2022-11-20T16:48:54;1.17;;;0.95;;
34136;SDS011;20414;50.860;4.382;2022-11-20T16:51:25;1.63;;;1.10;;
34136;SDS011;20414;50.860;4.382;2022-11-20T16:53:52;1.60;;;1.27;;
34136;SDS011;20414;50.860;4.382;2022-11-20T16:56:20;1.02;;;0.93;;
34136;SDS011;20414;50.860;4.382;2022-11-20T17:01:16;1.30;;;0.98;;
34136;SDS011;20414;50.860;4.382;2022-11-20T17:03:45;1.48;;;1.00;;
34136;SDS011;20414;50.860;4.382;2022-11-20T17:06:15;2.35;;;1.05;;
34136;SDS011;20414;50.860;4.382;2022-11-20T17:08:42;1.30;;;1.00;;
34136;SDS011;20414;50.860;4.382;2022-11-20T17:11:09;1.80;;;0.85;;
34136;SDS011;20414;50.860;4.382;2022-11-20T17:13:36;1.23;;;0.85;;
34136;SDS011;20414;50.860;4.382;2022-11-20T17:16:03;1.77;;;1.02;;